createdAt,value
2023-09-17T00:03:38.251Z,22.60
2023-09-17T00:07:40.305Z,22.30
2023-09-17T00:11:41.390Z,22.10
2023-09-17T00:15:43.292Z,22.20
2023-09-17T00:19:44.808Z,22.30
2023-09-17T00:23:46.030Z,22.20
2023-09-17T00:27:47.135Z,21.90
2023-09-17T00:31:48.301Z,22.00
2023-09-17T00:35:49.533Z,21.90
2023-09-17T00:39:50.643Z,22.20
2023-09-17T00:43:52.094Z,21.70
2023-09-17T00:47:53.471Z,21.80
2023-09-17T00:51:54.915Z,21.80
2023-09-17T00:55:56.231Z,21.70
2023-09-17T00:59:57.583Z,21.60
2023-09-17T01:04:00.273Z,21.60
2023-09-17T01:08:01.619Z,21.70
2023-09-17T01:12:03.661Z,21.60
2023-09-17T01:16:06.333Z,21.20
2023-09-17T01:20:16.405Z,21.10
2023-09-17T01:24:27.268Z,21.20
2023-09-17T01:28:29.670Z,21.20
2023-09-17T01:32:31.463Z,20.90
2023-09-17T01:36:34.445Z,20.90
2023-09-17T01:40:36.048Z,21.20
2023-09-17T01:44:38.641Z,20.60
2023-09-17T01:48:41.794Z,20.60
2023-09-17T01:52:44.314Z,20.90
2023-09-17T01:56:45.277Z,21.00
2023-09-17T02:00:46.268Z,21.10
2023-09-17T02:04:47.354Z,21.00
2023-09-17T02:08:48.388Z,20.70
2023-09-17T02:12:49.552Z,20.90
2023-09-17T02:16:51.505Z,21.20
2023-09-17T02:20:52.583Z,21.30
2023-09-17T02:24:54.012Z,21.20
2023-09-17T02:28:55.095Z,20.80
2023-09-17T02:32:56.597Z,20.70
2023-09-17T02:36:58.441Z,21.20
2023-09-17T02:41:00.321Z,21.20
2023-09-17T02:45:03.470Z,21.30
2023-09-17T02:49:04.684Z,21.50
2023-09-17T02:53:07.728Z,21.60
2023-09-17T02:57:09.147Z,21.50
2023-09-17T03:01:17.406Z,21.00
2023-09-17T03:05:18.401Z,21.00
2023-09-17T03:09:19.411Z,21.40
2023-09-17T03:13:22.458Z,21.80
2023-09-17T03:17:23.736Z,21.70
2023-09-17T03:21:24.826Z,22.10
2023-09-17T03:25:26.240Z,22.30
2023-09-17T03:29:27.405Z,21.40
2023-09-17T03:33:29.901Z,21.60
2023-09-17T03:37:31.041Z,21.70
2023-09-17T03:41:33.039Z,22.30
2023-09-17T03:45:34.529Z,21.50
2023-09-17T03:49:35.886Z,21.50
2023-09-17T03:53:37.534Z,21.90
2023-09-17T03:57:39.349Z,21.60
2023-09-17T04:01:40.614Z,21.30
2023-09-17T04:05:42.624Z,22.40
2023-09-17T04:09:43.673Z,21.80
2023-09-17T04:13:44.742Z,21.80
2023-09-17T04:17:50.539Z,22.30
2023-09-17T04:21:51.798Z,22.30
2023-09-17T04:25:54.787Z,23.00
2023-09-17T04:29:56.026Z,22.50
2023-09-17T04:33:57.312Z,22.60
2023-09-17T04:37:58.396Z,22.60
2023-09-17T04:41:59.575Z,22.80
2023-09-17T04:46:01.152Z,22.20
2023-09-17T04:50:03.798Z,22.50
2023-09-17T04:54:05.617Z,22.50
2023-09-17T04:58:06.793Z,21.90
2023-09-17T05:02:07.917Z,22.50
2023-09-17T05:06:09.567Z,22.70
2023-09-17T05:10:10.747Z,20.40
2023-09-17T05:14:11.791Z,21.20
2023-09-17T05:18:12.969Z,22.00
2023-09-17T05:22:14.373Z,21.20
2023-09-17T05:26:16.342Z,21.20
2023-09-17T05:30:17.778Z,20.00
2023-09-17T05:34:20.105Z,20.60
2023-09-17T05:38:21.313Z,20.80
2023-09-17T05:42:22.820Z,22.00
2023-09-17T05:46:23.890Z,21.60
2023-09-17T05:50:25.238Z,21.70
2023-09-17T05:54:26.553Z,22.00
2023-09-17T05:58:27.632Z,22.40
2023-09-17T06:02:29.077Z,22.50
2023-09-17T06:06:30.374Z,22.40
2023-09-17T06:10:31.437Z,22.00
2023-09-17T06:14:32.671Z,22.00
2023-09-17T06:18:34.931Z,22.30
2023-09-17T06:22:36.008Z,22.60
2023-09-17T06:26:37.506Z,22.40
2023-09-17T06:30:38.719Z,22.50
2023-09-17T06:34:40.985Z,22.60
2023-09-17T06:38:42.172Z,23.10
2023-09-17T06:42:43.311Z,22.20
2023-09-17T06:46:44.829Z,22.40
2023-09-17T06:50:45.932Z,22.30
2023-09-17T06:54:47.144Z,22.20
2023-09-17T06:58:48.583Z,22.80
2023-09-17T07:02:49.786Z,22.40
2023-09-17T07:06:51.070Z,21.30
2023-09-17T07:10:52.494Z,21.40
2023-09-17T07:14:53.652Z,21.00
2023-09-17T07:18:55.130Z,21.40
2023-09-17T07:22:56.347Z,22.50
2023-09-17T07:26:57.377Z,22.00
2023-09-17T07:30:58.602Z,23.70
2023-09-17T07:35:02.019Z,24.30
2023-09-17T07:39:04.430Z,25.40
2023-09-17T07:43:06.835Z,25.60
2023-09-17T07:47:09.879Z,25.80
2023-09-17T07:51:10.973Z,26.00
2023-09-17T07:55:12.135Z,26.10
2023-09-17T07:59:13.311Z,26.40
2023-09-17T08:03:18.323Z,25.20
2023-09-17T08:07:19.504Z,25.20
2023-09-17T08:11:22.036Z,25.60
2023-09-17T08:15:23.193Z,25.50
2023-09-17T08:19:24.265Z,25.80
2023-09-17T08:23:25.290Z,26.00
2023-09-17T08:27:26.466Z,24.80
2023-09-17T08:31:28.768Z,26.00
2023-09-17T08:35:30.410Z,26.90
2023-09-17T08:39:32.078Z,26.90
2023-09-17T08:43:34.471Z,26.10
2023-09-17T08:47:37.615Z,25.60
2023-09-17T08:51:42.002Z,26.30
2023-09-17T08:55:46.861Z,26.30
2023-09-17T08:59:56.177Z,25.80
2023-09-17T09:03:57.683Z,26.40
2023-09-17T09:07:59.421Z,25.80
2023-09-17T09:12:00.467Z,26.00
2023-09-17T09:16:02.604Z,26.60
2023-09-17T09:20:05.901Z,26.80
2023-09-17T09:24:07.454Z,26.40
2023-09-17T09:28:08.743Z,26.70
2023-09-17T09:32:11.265Z,27.30
2023-09-17T09:36:13.442Z,27.00
2023-09-17T09:40:15.149Z,25.90
2023-09-17T09:44:16.695Z,26.90
2023-09-17T09:48:17.801Z,27.30
2023-09-17T09:52:22.345Z,26.30
2023-09-17T09:56:29.022Z,27.10
2023-09-17T10:00:30.630Z,27.50
2023-09-17T10:04:32.050Z,27.10
2023-09-17T10:08:37.002Z,26.50
2023-09-17T10:12:38.131Z,26.90
2023-09-17T10:16:40.507Z,27.10
2023-09-17T10:20:44.176Z,27.10
2023-09-17T10:24:46.329Z,26.30
2023-09-17T10:28:48.561Z,26.50
2023-09-17T10:32:51.880Z,26.80
2023-09-17T10:36:54.137Z,27.00
2023-09-17T10:40:56.982Z,27.10
2023-09-17T10:45:00.189Z,27.20
2023-09-17T10:49:02.726Z,28.20
2023-09-17T10:53:05.468Z,28.10
2023-09-17T10:57:16.437Z,28.00
2023-09-17T11:01:23.929Z,27.40
2023-09-17T11:05:28.614Z,27.50
2023-09-17T11:09:29.774Z,27.80
2023-09-17T11:13:36.832Z,27.90
2023-09-17T11:17:38.724Z,27.50
2023-09-17T11:21:53.108Z,27.90
2023-09-17T11:25:55.370Z,28.70
2023-09-17T11:29:56.565Z,28.10
2023-09-17T11:33:58.184Z,28.10
2023-09-17T11:37:59.349Z,28.60
2023-09-17T11:42:06.410Z,28.80
2023-09-17T11:46:10.804Z,28.70
2023-09-17T11:50:13.973Z,28.70
2023-09-17T11:54:20.253Z,28.90
2023-09-17T11:58:21.738Z,29.00
2023-09-17T12:02:23.717Z,29.20
2023-09-17T12:06:27.347Z,29.10
2023-09-17T12:10:29.661Z,29.50
2023-09-17T12:14:32.727Z,29.10
2023-09-17T12:18:34.210Z,28.80
2023-09-17T12:22:35.188Z,29.40
2023-09-17T12:26:50.532Z,29.80
2023-09-17T12:30:51.713Z,29.90
2023-09-17T12:34:54.618Z,29.00
2023-09-17T12:38:55.813Z,28.40
2023-09-17T12:42:57.657Z,28.80
2023-09-17T12:46:59.746Z,30.00
2023-09-17T12:51:02.191Z,30.10
2023-09-17T12:55:04.308Z,30.20
2023-09-17T12:59:05.589Z,30.50
2023-09-17T13:03:14.630Z,30.80
2023-09-17T13:07:19.724Z,30.60
2023-09-17T13:11:20.918Z,31.30
2023-09-17T13:15:22.422Z,32.00
2023-09-17T13:19:23.746Z,32.50
2023-09-17T13:23:25.117Z,31.10
2023-09-17T13:27:30.128Z,30.30
2023-09-17T13:31:32.535Z,30.30
2023-09-17T13:35:33.887Z,31.40
2023-09-17T13:39:40.868Z,32.50
2023-09-17T13:43:41.947Z,32.30
2023-09-17T13:47:43.001Z,31.60
2023-09-17T13:51:44.352Z,31.60
2023-09-17T13:55:46.409Z,31.60
2023-09-17T13:59:47.564Z,31.80
2023-09-17T14:03:48.645Z,31.30
2023-09-17T14:07:49.662Z,30.60
2023-09-17T14:11:50.782Z,30.20
2023-09-17T14:15:51.831Z,30.10
2023-09-17T14:19:52.981Z,30.40
2023-09-17T14:23:54.040Z,30.40
2023-09-17T14:27:55.114Z,31.00
2023-09-17T14:31:56.167Z,31.90
2023-09-17T14:35:57.339Z,32.70
2023-09-17T14:39:58.393Z,32.70
2023-09-17T14:43:59.831Z,32.50
2023-09-17T14:48:01.059Z,32.50
2023-09-17T14:52:02.175Z,31.70
2023-09-17T14:56:03.730Z,31.50
2023-09-17T15:00:05.926Z,31.40
2023-09-17T15:04:07.617Z,31.20
2023-09-17T15:08:08.946Z,31.30
2023-09-17T15:12:10.882Z,31.90
2023-09-17T15:16:12.094Z,31.20
2023-09-17T15:20:13.919Z,30.90
2023-09-17T15:24:14.974Z,30.70
2023-09-17T15:28:16.197Z,31.20
2023-09-17T15:32:17.541Z,31.00
2023-09-17T15:36:19.545Z,30.90
2023-09-17T15:40:20.684Z,31.50
2023-09-17T15:44:23.323Z,31.30
2023-09-17T15:48:24.510Z,30.80
2023-09-17T15:52:25.547Z,30.60
2023-09-17T15:56:26.735Z,30.80
2023-09-17T16:00:27.802Z,30.40
2023-09-17T16:04:29.149Z,30.50
2023-09-17T16:08:30.261Z,29.90
2023-09-17T16:12:31.345Z,29.80
2023-09-17T16:16:32.517Z,30.00
2023-09-17T16:20:33.730Z,30.40
2023-09-17T16:24:35.096Z,30.20
2023-09-17T16:28:36.174Z,30.00
2023-09-17T16:32:39.290Z,30.00
2023-09-17T16:36:40.622Z,30.00
2023-09-17T16:40:43.596Z,30.10
2023-09-17T16:44:45.516Z,30.30
2023-09-17T16:48:47.968Z,30.20
2023-09-17T16:52:49.043Z,30.20
2023-09-17T16:56:50.142Z,29.80
2023-09-17T17:00:52.198Z,29.50
2023-09-17T17:04:55.329Z,29.10
2023-09-17T17:08:56.598Z,28.70
2023-09-17T17:12:58.309Z,29.00
2023-09-17T17:17:01.329Z,28.60
2023-09-17T17:21:03.269Z,28.40
2023-09-17T17:25:05.059Z,28.60
2023-09-17T17:29:06.166Z,28.40
2023-09-17T17:33:07.588Z,28.50
2023-09-17T17:37:08.957Z,28.50
2023-09-17T17:41:10.251Z,28.40
2023-09-17T17:45:11.434Z,28.20
2023-09-17T17:49:12.629Z,28.10
2023-09-17T17:53:13.878Z,28.00
2023-09-17T17:57:16.138Z,27.90
2023-09-17T18:01:18.380Z,27.60
2023-09-17T18:05:19.569Z,27.50
2023-09-17T18:09:21.353Z,27.20
2023-09-17T18:13:22.429Z,27.10
2023-09-17T18:17:25.533Z,27.00
2023-09-17T18:21:26.579Z,27.00
2023-09-17T18:25:30.143Z,26.90
2023-09-17T18:29:31.387Z,26.60
2023-09-17T18:33:34.378Z,26.50
2023-09-17T18:37:35.597Z,26.40
2023-09-17T18:41:36.843Z,26.30
2023-09-17T18:45:38.185Z,26.10
2023-09-17T18:49:40.552Z,26.10
2023-09-17T18:53:41.629Z,26.00
2023-09-17T18:57:43.830Z,25.90
2023-09-17T19:01:45.317Z,26.00
2023-09-17T19:05:46.448Z,26.10
2023-09-17T19:09:48.522Z,25.40
2023-09-17T19:13:49.949Z,25.60
2023-09-17T19:17:51.533Z,25.30
2023-09-17T19:21:52.639Z,25.20
2023-09-17T19:25:53.758Z,25.50
2023-09-17T19:29:54.930Z,25.60
2023-09-17T19:33:55.987Z,25.00
2023-09-17T19:37:57.319Z,25.30
2023-09-17T19:41:58.619Z,25.20
2023-09-17T19:46:00.409Z,25.10
2023-09-17T19:50:01.609Z,24.90
2023-09-17T19:54:04.603Z,24.90
2023-09-17T19:58:05.917Z,24.80
2023-09-17T20:02:07.255Z,24.80
2023-09-17T20:06:08.593Z,24.70
2023-09-17T20:10:15.157Z,24.50
2023-09-17T20:14:16.217Z,24.40
2023-09-17T20:18:17.480Z,24.40
2023-09-17T20:22:18.538Z,24.40
2023-09-17T20:26:19.600Z,24.30
2023-09-17T20:30:21.014Z,24.10
2023-09-17T20:34:23.602Z,24.00
2023-09-17T20:38:25.034Z,24.20
2023-09-17T20:42:26.225Z,24.00
2023-09-17T20:46:27.296Z,24.10
2023-09-17T20:50:29.465Z,24.00
2023-09-17T20:54:30.419Z,23.70
2023-09-17T20:58:32.211Z,23.30
2023-09-17T21:02:33.386Z,23.50
2023-09-17T21:06:34.798Z,23.40
2023-09-17T21:10:36.159Z,23.40
2023-09-17T21:14:37.601Z,23.40
2023-09-17T21:18:38.638Z,23.50
2023-09-17T21:22:41.421Z,23.40
2023-09-17T21:26:42.540Z,23.30
2023-09-17T21:30:44.475Z,23.40
2023-09-17T21:34:46.040Z,23.20
2023-09-17T21:38:47.037Z,23.20
2023-09-17T21:42:48.176Z,23.00
2023-09-17T21:46:49.414Z,23.20
2023-09-17T21:50:50.761Z,23.10
2023-09-17T21:54:52.543Z,23.00
2023-09-17T21:58:53.828Z,23.10
2023-09-17T22:02:57.528Z,23.00
2023-09-17T22:06:58.344Z,22.90
2023-09-17T22:11:05.770Z,22.90
2023-09-17T22:15:07.396Z,22.80
2023-09-17T22:19:09.957Z,22.90
2023-09-17T22:23:11.319Z,22.90
2023-09-17T22:27:14.346Z,22.70
2023-09-17T22:31:15.714Z,22.50
2023-09-17T22:35:16.807Z,22.70
2023-09-17T22:39:18.017Z,22.40
2023-09-17T22:43:19.034Z,22.10
2023-09-17T22:47:20.129Z,21.50
2023-09-17T22:51:23.076Z,20.80
2023-09-17T22:55:24.141Z,21.40
2023-09-17T22:59:25.626Z,22.00
2023-09-17T23:03:26.591Z,21.90
2023-09-17T23:07:27.587Z,22.10
2023-09-17T23:11:28.862Z,22.30
2023-09-17T23:15:29.912Z,22.00
2023-09-17T23:19:31.089Z,22.00
2023-09-17T23:23:32.544Z,21.80
2023-09-17T23:27:33.943Z,21.50
2023-09-17T23:31:38.482Z,21.50
2023-09-17T23:35:40.010Z,21.50
2023-09-17T23:39:44.465Z,21.70
2023-09-17T23:43:45.818Z,21.80
2023-09-17T23:47:47.107Z,21.70
2023-09-17T23:51:48.335Z,21.50
2023-09-17T23:55:49.506Z,21.90
2023-09-17T23:59:50.494Z,21.70
